sensor_id;sensor_type;location;lat;lon;timestamp;pressure;altitude;pressure_sealevel;temperature;humidity
80542;BME280;69870;51.460;8.842;2023-07-31T00:02:16;98025.19;;;16.17;80.39
80542;BME280;69870;51.460;8.842;2023-07-31T00:04:42;98018.09;;;16.15;80.35
80542;BME280;69870;51.460;8.842;2023-07-31T00:07:10;98013.84;;;16.11;80.63
80542;BME280;69870;51.460;8.842;2023-07-31T00:09:37;98011.84;;;16.11;80.79
80542;BME280;69870;51.460;8.842;2023-07-31T00:12:04;98013.44;;;16.12;80.87
80542;BME280;69870;51.460;8.842;2023-07-31T00:14:31;98005.19;;;16.09;81.01
80542;BME280;69870;51.460;8.842;2023-07-31T00:16:57;98007.19;;;16.08;80.69
80542;BME280;69870;51.460;8.842;2023-07-31T00:19:24;97998.16;;;16.08;80.99
80542;BME280;69870;51.460;8.842;2023-07-31T00:21:50;97996.97;;;16.09;80.99
80542;BME280;69870;51.460;8.842;2023-07-31T00:24:18;98007.56;;;16.10;80.78
80542;BME280;69870;51.460;8.842;2023-07-31T00:26:45;98000.13;;;16.07;81.02
80542;BME280;69870;51.460;8.842;2023-07-31T00:29:11;97991.09;;;16.07;80.88
80542;BME280;69870;51.460;8.842;2023-07-31T00:31:38;97997.00;;;16.05;81.29
80542;BME280;69870;51.460;8.842;2023-07-31T00:34:04;97993.09;;;16.03;81.63
80542;BME280;69870;51.460;8.842;2023-07-31T00:36:34;97994.66;;;16.00;81.53
80542;BME280;69870;51.460;8.842;2023-07-31T00:39:00;97997.41;;;16.00;81.55
80542;BME280;69870;51.460;8.842;2023-07-31T00:41:28;97998.97;;;16.01;81.45
80542;BME280;69870;51.460;8.842;2023-07-31T00:43:55;97994.28;;;15.98;81.75
80542;BME280;69870;51.460;8.842;2023-07-31T00:46:21;97995.06;;;15.99;81.37
80542;BME280;69870;51.460;8.842;2023-07-31T00:48:48;97988.00;;;15.98;81.69
80542;BME280;69870;51.460;8.842;2023-07-31T00:51:15;97988.78;;;15.98;81.68
80542;BME280;69870;51.460;8.842;2023-07-31T00:53:43;97989.19;;;15.97;82.11
80542;BME280;69870;51.460;8.842;2023-07-31T00:56:10;97984.50;;;15.97;81.83
80542;BME280;69870;51.460;8.842;2023-07-31T00:58:39;97994.28;;;15.98;82.29
80542;BME280;69870;51.460;8.842;2023-07-31T01:01:07;97984.88;;;15.96;82.22
80542;BME280;69870;51.460;8.842;2023-07-31T01:03:34;97975.09;;;15.95;81.95
80542;BME280;69870;51.460;8.842;2023-07-31T01:06:09;97969.59;;;15.95;82.08
80542;BME280;69870;51.460;8.842;2023-07-31T01:08:44;97967.66;;;15.95;82.26
80542;BME280;69870;51.460;8.842;2023-07-31T01:11:17;97960.59;;;15.94;81.91
80542;BME280;69870;51.460;8.842;2023-07-31T01:13:47;97964.91;;;15.95;81.93
80542;BME280;69870;51.460;8.842;2023-07-31T01:16:14;97962.16;;;15.95;82.23
80542;BME280;69870;51.460;8.842;2023-07-31T01:18:40;97959.44;;;15.95;82.53
80542;BME280;69870;51.460;8.842;2023-07-31T01:21:21;97950.78;;;15.93;82.59
80542;BME280;69870;51.460;8.842;2023-07-31T01:24:07;97957.88;;;15.87;82.39
80542;BME280;69870;51.460;8.842;2023-07-31T01:26:45;97952.38;;;15.87;82.50
80542;BME280;69870;51.460;8.842;2023-07-31T01:29:18;97959.44;;;15.88;82.44
80542;BME280;69870;51.460;8.842;2023-07-31T01:31:48;97953.97;;;15.88;82.46
80542;BME280;69870;51.460;8.842;2023-07-31T01:34:17;97957.09;;;15.90;82.37
80542;BME280;69870;51.460;8.842;2023-07-31T01:36:44;97958.25;;;15.93;82.30
80542;BME280;69870;51.460;8.842;2023-07-31T01:39:11;97950.78;;;15.93;82.67
80542;BME280;69870;51.460;8.842;2023-07-31T01:41:37;97947.66;;;15.95;82.61
80542;BME280;69870;51.460;8.842;2023-07-31T01:44:06;97946.88;;;15.94;82.56
80542;BME280;69870;51.460;8.842;2023-07-31T01:46:33;97946.88;;;15.94;82.93
80542;BME280;69870;51.460;8.842;2023-07-31T01:49:00;97933.53;;;15.96;82.63
80542;BME280;69870;51.460;8.842;2023-07-31T01:51:26;97935.91;;;15.94;82.63
80542;BME280;69870;51.460;8.842;2023-07-31T01:53:53;97934.31;;;15.93;83.01
80542;BME280;69870;51.460;8.842;2023-07-31T01:56:19;97928.84;;;15.93;82.95
80542;BME280;69870;51.460;8.842;2023-07-31T01:58:46;97926.91;;;15.90;83.35
80542;BME280;69870;51.460;8.842;2023-07-31T02:01:14;97930.44;;;15.91;82.75
80542;BME280;69870;51.460;8.842;2023-07-31T02:03:40;97925.72;;;15.91;83.29
80542;BME280;69870;51.460;8.842;2023-07-31T02:06:07;97931.19;;;15.91;83.11
80542;BME280;69870;51.460;8.842;2023-07-31T02:08:34;97931.19;;;15.91;83.53
80542;BME280;69870;51.460;8.842;2023-07-31T02:11:00;97928.88;;;15.90;83.27
80542;BME280;69870;51.460;8.842;2023-07-31T02:13:27;97923.38;;;15.90;83.25
80542;BME280;69870;51.460;8.842;2023-07-31T02:15:53;97928.47;;;15.91;83.13
80542;BME280;69870;51.460;8.842;2023-07-31T02:18:21;97926.50;;;15.92;83.27
80542;BME280;69870;51.460;8.842;2023-07-31T02:20:49;97926.91;;;15.90;83.25
80542;BME280;69870;51.460;8.842;2023-07-31T02:23:16;97921.44;;;15.90;83.27
80542;BME280;69870;51.460;8.842;2023-07-31T02:25:43;97922.97;;;15.91;83.16
80542;BME280;69870;51.460;8.842;2023-07-31T02:28:09;97917.88;;;15.93;83.38
80542;BME280;69870;51.460;8.842;2023-07-31T02:30:36;97919.44;;;15.94;83.03
80542;BME280;69870;51.460;8.842;2023-07-31T02:33:03;97917.50;;;15.95;83.28
80542;BME280;69870;51.460;8.842;2023-07-31T02:35:31;97917.13;;;15.93;83.54
80542;BME280;69870;51.460;8.842;2023-07-31T02:37:58;97919.81;;;15.96;83.44
80542;BME280;69870;51.460;8.842;2023-07-31T02:40:24;97918.28;;;15.95;83.18
80542;BME280;69870;51.460;8.842;2023-07-31T02:42:51;97919.44;;;15.94;83.21
80542;BME280;69870;51.460;8.842;2023-07-31T02:45:17;97917.50;;;15.95;83.48
80542;BME280;69870;51.460;8.842;2023-07-31T02:47:44;97925.34;;;15.93;83.23
80542;BME280;69870;51.460;8.842;2023-07-31T02:50:10;97912.38;;;15.93;83.54
80542;BME280;69870;51.460;8.842;2023-07-31T02:52:38;97918.66;;;15.94;83.41
80542;BME280;69870;51.460;8.842;2023-07-31T02:55:06;97919.84;;;15.93;83.58
80542;BME280;69870;51.460;8.842;2023-07-31T02:57:32;97926.09;;;15.93;83.62
80542;BME280;69870;51.460;8.842;2023-07-31T02:59:59;97920.63;;;15.93;83.67
80542;BME280;69870;51.460;8.842;2023-07-31T03:02:25;97921.81;;;15.92;83.48
80542;BME280;69870;51.460;8.842;2023-07-31T03:04:52;97927.69;;;15.94;83.69
80542;BME280;69870;51.460;8.842;2023-07-31T03:07:19;97935.91;;;15.94;83.54
80542;BME280;69870;51.460;8.842;2023-07-31T03:09:46;97921.81;;;15.92;83.33
80542;BME280;69870;51.460;8.842;2023-07-31T03:12:14;97916.69;;;15.94;83.52
80542;BME280;69870;51.460;8.842;2023-07-31T03:14:40;97917.13;;;15.93;83.55
80542;BME280;69870;51.460;8.842;2023-07-31T03:17:07;97924.56;;;15.89;83.50
80542;BME280;69870;51.460;8.842;2023-07-31T03:19:34;97928.06;;;15.89;83.60
80542;BME280;69870;51.460;8.842;2023-07-31T03:22:00;97936.31;;;15.89;83.78
80542;BME280;69870;51.460;8.842;2023-07-31T03:24:28;97929.66;;;15.90;83.27
80542;BME280;69870;51.460;8.842;2023-07-31T03:26:56;97926.91;;;15.90;83.59
80542;BME280;69870;51.460;8.842;2023-07-31T03:29:23;97930.81;;;15.89;83.43
80542;BME280;69870;51.460;8.842;2023-07-31T03:31:49;97926.91;;;15.90;83.51
80542;BME280;69870;51.460;8.842;2023-07-31T03:34:16;97931.19;;;15.91;83.49
80542;BME280;69870;51.460;8.842;2023-07-31T03:36:42;97928.06;;;15.89;83.48
80542;BME280;69870;51.460;8.842;2023-07-31T03:39:09;97930.81;;;15.89;83.50
80542;BME280;69870;51.460;8.842;2023-07-31T03:41:36;97927.69;;;15.87;83.50
80542;BME280;69870;51.460;8.842;2023-07-31T03:44:04;97932.41;;;15.87;83.60
80542;BME280;69870;51.460;8.842;2023-07-31T03:46:30;97930.03;;;15.89;83.63
80542;BME280;69870;51.460;8.842;2023-07-31T03:48:57;97921.44;;;15.90;83.14
80542;BME280;69870;51.460;8.842;2023-07-31T03:51:23;97935.13;;;15.87;83.10
80542;BME280;69870;51.460;8.842;2023-07-31T03:53:50;97928.91;;;15.86;83.45
80542;BME280;69870;51.460;8.842;2023-07-31T03:56:16;97925.38;;;15.86;83.34
80542;BME280;69870;51.460;8.842;2023-07-31T03:58:43;97926.16;;;15.86;83.00
80542;BME280;69870;51.460;8.842;2023-07-31T04:01:11;97916.34;;;15.85;83.16
80542;BME280;69870;51.460;8.842;2023-07-31T04:03:37;97920.66;;;15.86;83.14
80542;BME280;69870;51.460;8.842;2023-07-31T04:06:04;97928.91;;;15.86;83.29
80542;BME280;69870;51.460;8.842;2023-07-31T04:08:32;97928.91;;;15.86;82.97
80542;BME280;69870;51.460;8.842;2023-07-31T04:10:58;97931.63;;;15.86;82.97
80542;BME280;69870;51.460;8.842;2023-07-31T04:13:25;97932.03;;;15.88;82.98
80542;BME280;69870;51.460;8.842;2023-07-31T04:15:52;97926.16;;;15.86;83.05
80542;BME280;69870;51.460;8.842;2023-07-31T04:18:21;97935.94;;;15.84;83.00
80542;BME280;69870;51.460;8.842;2023-07-31T04:20:47;97941.44;;;15.80;82.88
80542;BME280;69870;51.460;8.842;2023-07-31T04:23:14;97944.56;;;15.82;83.10
80542;BME280;69870;51.460;8.842;2023-07-31T04:25:40;97932.41;;;15.83;82.73
80542;BME280;69870;51.460;8.842;2023-07-31T04:28:07;97934.00;;;15.84;82.81
80542;BME280;69870;51.460;8.842;2023-07-31T04:30:33;97928.09;;;15.86;82.68
80542;BME280;69870;51.460;8.842;2023-07-31T04:33:01;97932.41;;;15.87;82.54
80542;BME280;69870;51.460;8.842;2023-07-31T04:35:29;97911.63;;;15.89;82.69
80542;BME280;69870;51.460;8.842;2023-07-31T04:37:56;97924.56;;;15.89;82.41
80542;BME280;69870;51.460;8.842;2023-07-31T04:40:22;97920.28;;;15.84;82.59
80542;BME280;69870;51.460;8.842;2023-07-31T04:42:49;97930.47;;;15.84;82.58
80542;BME280;69870;51.460;8.842;2023-07-31T04:45:15;97920.28;;;15.81;82.30
80542;BME280;69870;51.460;8.842;2023-07-31T04:47:42;97916.75;;;15.80;82.36
80542;BME280;69870;51.460;8.842;2023-07-31T04:50:09;97924.97;;;15.80;82.03
80542;BME280;69870;51.460;8.842;2023-07-31T04:52:37;97916.75;;;15.80;82.35
80542;BME280;69870;51.460;8.842;2023-07-31T04:55:04;97919.88;;;15.82;81.98
80542;BME280;69870;51.460;8.842;2023-07-31T04:57:31;97919.09;;;15.85;81.86
80542;BME280;69870;51.460;8.842;2023-07-31T04:59:57;97914.41;;;15.86;81.69
80542;BME280;69870;51.460;8.842;2023-07-31T05:02:24;97919.06;;;15.89;82.07
80542;BME280;69870;51.460;8.842;2023-07-31T05:04:50;97913.59;;;15.92;81.93
80542;BME280;69870;51.460;8.842;2023-07-31T05:07:17;97911.59;;;15.96;81.87
80542;BME280;69870;51.460;8.842;2023-07-31T05:09:45;97912.38;;;15.97;81.55
80542;BME280;69870;51.460;8.842;2023-07-31T05:12:12;97904.91;;;16.01;81.48
80542;BME280;69870;51.460;8.842;2023-07-31T05:14:38;97911.56;;;16.03;81.31
80542;BME280;69870;51.460;8.842;2023-07-31T05:17:05;97911.56;;;16.03;81.38
80542;BME280;69870;51.460;8.842;2023-07-31T05:19:32;97910.00;;;16.02;81.17
80542;BME280;69870;51.460;8.842;2023-07-31T05:21:58;97911.56;;;16.03;81.38
80542;BME280;69870;51.460;8.842;2023-07-31T05:24:25;97913.53;;;16.03;81.64
80542;BME280;69870;51.460;8.842;2023-07-31T05:26:52;97911.94;;;16.05;81.63
80542;BME280;69870;51.460;8.842;2023-07-31T05:29:19;97905.28;;;16.06;81.44
80542;BME280;69870;51.460;8.842;2023-07-31T05:31:46;97907.59;;;16.11;81.41
80542;BME280;69870;51.460;8.842;2023-07-31T05:34:13;97904.44;;;16.17;81.16
80542;BME280;69870;51.460;8.842;2023-07-31T05:36:39;97911.06;;;16.23;81.36
80542;BME280;69870;51.460;8.842;2023-07-31T05:39:06;97902.41;;;16.28;81.18
80542;BME280;69870;51.460;8.842;2023-07-31T05:41:34;97902.00;;;16.29;81.16
80542;BME280;69870;51.460;8.842;2023-07-31T05:44:03;97909.06;;;16.30;80.93
80542;BME280;69870;51.460;8.842;2023-07-31T05:46:30;97905.13;;;16.31;80.93
80542;BME280;69870;51.460;8.842;2023-07-31T05:48:57;97905.13;;;16.35;80.81
80542;BME280;69870;51.460;8.842;2023-07-31T05:51:25;97906.66;;;16.36;81.06
80542;BME280;69870;51.460;8.842;2023-07-31T05:53:52;97897.66;;;16.35;80.78
80542;BME280;69870;51.460;8.842;2023-07-31T05:56:19;97904.72;;;16.36;80.55
80542;BME280;69870;51.460;8.842;2023-07-31T05:58:45;97896.84;;;16.38;80.54
80542;BME280;69870;51.460;8.842;2023-07-31T06:01:13;97894.47;;;16.40;80.50
80542;BME280;69870;51.460;8.842;2023-07-31T06:03:41;97898.38;;;16.43;80.31
80542;BME280;69870;51.460;8.842;2023-07-31T06:06:08;97892.50;;;16.44;80.45
80542;BME280;69870;51.460;8.842;2023-07-31T06:08:34;97887.41;;;16.43;80.60
80542;BME280;69870;51.460;8.842;2023-07-31T06:11:01;97893.28;;;16.45;79.94
80542;BME280;69870;51.460;8.842;2023-07-31T06:13:27;97890.53;;;16.48;80.37
80542;BME280;69870;51.460;8.842;2023-07-31T06:15:54;97896.78;;;16.52;80.38
80542;BME280;69870;51.460;8.842;2023-07-31T06:18:22;97897.94;;;16.55;80.04
80542;BME280;69870;51.460;8.842;2023-07-31T06:20:48;97888.13;;;16.57;80.02
80542;BME280;69870;51.460;8.842;2023-07-31T06:23:18;97888.88;;;16.58;80.41
80542;BME280;69870;51.460;8.842;2023-07-31T06:28:39;97881.75;;;16.67;80.64
80542;BME280;69870;51.460;8.842;2023-07-31T06:31:06;97893.91;;;16.70;80.20
80542;BME280;69870;51.460;8.842;2023-07-31T06:33:34;97881.34;;;16.72;80.44
80542;BME280;69870;51.460;8.842;2023-07-31T06:36:00;97895.03;;;16.76;80.66
80542;BME280;69870;51.460;8.842;2023-07-31T06:38:27;97890.69;;;16.82;80.18
80542;BME280;69870;51.460;8.842;2023-07-31T06:40:53;97896.50;;;16.88;80.38
80542;BME280;69870;51.460;8.842;2023-07-31T06:43:20;97888.25;;;16.88;80.29
80542;BME280;69870;51.460;8.842;2023-07-31T06:45:47;97885.09;;;16.89;80.57
80542;BME280;69870;51.460;8.842;2023-07-31T06:48:16;97882.34;;;16.89;80.52
80542;BME280;69870;51.460;8.842;2023-07-31T06:50:44;97883.50;;;16.92;80.11
80542;BME280;69870;51.460;8.842;2023-07-31T06:53:10;97890.16;;;16.94;80.23
80542;BME280;69870;51.460;8.842;2023-07-31T06:55:37;97890.16;;;16.98;80.39
80542;BME280;69870;51.460;8.842;2023-07-31T06:58:04;97889.31;;;17.01;80.39
80542;BME280;69870;51.460;8.842;2023-07-31T07:00:30;97883.34;;;17.09;80.21
80542;BME280;69870;51.460;8.842;2023-07-31T07:02:57;97876.25;;;17.15;80.56
80542;BME280;69870;51.460;8.842;2023-07-31T07:05:24;97877.72;;;17.23;79.99
80542;BME280;69870;51.460;8.842;2023-07-31T07:07:52;97883.09;;;17.34;79.51
80542;BME280;69870;51.460;8.842;2023-07-31T07:10:19;97877.47;;;17.44;79.57
80542;BME280;69870;51.460;8.842;2023-07-31T07:12:45;97884.59;;;17.42;79.26
80542;BME280;69870;51.460;8.842;2023-07-31T07:15:12;97879.13;;;17.38;79.33
80542;BME280;69870;51.460;8.842;2023-07-31T07:17:38;97864.19;;;17.39;79.50
80542;BME280;69870;51.460;8.842;2023-07-31T07:20:06;97866.03;;;17.49;79.16
80542;BME280;69870;51.460;8.842;2023-07-31T07:22:33;97862.78;;;17.62;79.20
80542;BME280;69870;51.460;8.842;2023-07-31T07:25:01;97862.72;;;17.69;79.07
80542;BME280;69870;51.460;8.842;2023-07-31T07:27:28;97863.84;;;17.71;78.84
80542;BME280;69870;51.460;8.842;2023-07-31T07:29:54;97862.31;;;17.67;79.17
80542;BME280;69870;51.460;8.842;2023-07-31T07:32:21;97867.09;;;17.63;79.30
80542;BME280;69870;51.460;8.842;2023-07-31T07:34:48;97851.06;;;17.58;79.07
80542;BME280;69870;51.460;8.842;2023-07-31T07:37:15;97855.00;;;17.56;79.44
80542;BME280;69870;51.460;8.842;2023-07-31T07:39:42;97853.75;;;17.61;79.27
80542;BME280;69870;51.460;8.842;2023-07-31T07:42:10;97844.28;;;17.66;79.34
80542;BME280;69870;51.460;8.842;2023-07-31T07:44:36;97852.94;;;17.64;78.88
80542;BME280;69870;51.460;8.842;2023-07-31T07:47:03;97849.78;;;17.66;79.26
80542;BME280;69870;51.460;8.842;2023-07-31T07:49:31;97851.72;;;17.69;78.77
80542;BME280;69870;51.460;8.842;2023-07-31T07:51:58;97848.53;;;17.70;79.04
80542;BME280;69870;51.460;8.842;2023-07-31T07:54:24;97847.31;;;17.71;78.81
80542;BME280;69870;51.460;8.842;2023-07-31T07:56:51;97842.63;;;17.72;78.59
80542;BME280;69870;51.460;8.842;2023-07-31T07:59:18;97843.75;;;17.74;79.03
80542;BME280;69870;51.460;8.842;2023-07-31T08:01:45;97851.19;;;17.77;78.77
80542;BME280;69870;51.460;8.842;2023-07-31T08:04:12;97837.03;;;17.79;78.81
80542;BME280;69870;51.460;8.842;2023-07-31T08:06:38;97842.47;;;17.82;79.19
80542;BME280;69870;51.460;8.842;2023-07-31T08:09:05;97849.13;;;17.85;78.92
80542;BME280;69870;51.460;8.842;2023-07-31T08:11:31;97843.97;;;17.87;78.83
80542;BME280;69870;51.460;8.842;2023-07-31T08:13:58;97849.09;;;17.88;78.94
80542;BME280;69870;51.460;8.842;2023-07-31T08:16:26;97857.25;;;17.95;78.79
80542;BME280;69870;51.460;8.842;2023-07-31T08:18:53;97852.13;;;17.97;78.90
80542;BME280;69870;51.460;8.842;2023-07-31T08:21:19;97846.97;;;17.99;78.93
80542;BME280;69870;51.460;8.842;2023-07-31T08:23:46;97857.19;;;17.99;78.96
80542;BME280;69870;51.460;8.842;2023-07-31T08:26:14;97840.31;;;17.97;79.06
80542;BME280;69870;51.460;8.842;2023-07-31T08:28:41;97840.69;;;17.99;78.22
80542;BME280;69870;51.460;8.842;2023-07-31T08:31:08;97835.53;;;18.01;78.80
80542;BME280;69870;51.460;8.842;2023-07-31T08:33:35;97829.50;;;18.09;78.78
80542;BME280;69870;51.460;8.842;2023-07-31T08:36:02;97832.59;;;18.15;78.28
80542;BME280;69870;51.460;8.842;2023-07-31T08:38:29;97828.16;;;18.21;78.59
80542;BME280;69870;51.460;8.842;2023-07-31T08:40:56;97823.81;;;18.23;77.89
80542;BME280;69870;51.460;8.842;2023-07-31T08:43:25;97821.34;;;18.29;78.01
80542;BME280;69870;51.460;8.842;2023-07-31T08:45:52;97824.88;;;18.29;77.99
80542;BME280;69870;51.460;8.842;2023-07-31T08:48:19;97815.44;;;18.30;78.35
80542;BME280;69870;51.460;8.842;2023-07-31T08:50:47;97819.38;;;18.29;77.68
80542;BME280;69870;51.460;8.842;2023-07-31T08:53:13;97810.69;;;18.31;77.56
80542;BME280;69870;51.460;8.842;2023-07-31T08:55:42;97816.16;;;18.35;77.22
80542;BME280;69870;51.460;8.842;2023-07-31T08:58:09;97816.94;;;18.35;77.24
80542;BME280;69870;51.460;8.842;2023-07-31T09:00:39;97806.69;;;18.36;77.30
80542;BME280;69870;51.460;8.842;2023-07-31T09:03:08;97806.28;;;18.37;76.95
80542;BME280;69870;51.460;8.842;2023-07-31T09:05:36;97799.94;;;18.40;77.05
80542;BME280;69870;51.460;8.842;2023-07-31T09:08:07;97802.25;;;18.45;76.64
80542;BME280;69870;51.460;8.842;2023-07-31T09:10:35;97800.19;;;18.49;76.90
80542;BME280;69870;51.460;8.842;2023-07-31T09:13:02;97797.41;;;18.53;76.71
80542;BME280;69870;51.460;8.842;2023-07-31T09:15:29;97806.28;;;18.64;76.63
80542;BME280;69870;51.460;8.842;2023-07-31T09:17:59;97809.53;;;18.78;75.99
80542;BME280;69870;51.460;8.842;2023-07-31T09:20:26;97808.88;;;18.94;75.76
80542;BME280;69870;51.460;8.842;2023-07-31T09:22:52;97800.06;;;19.22;75.27
80542;BME280;69870;51.460;8.842;2023-07-31T09:25:21;97807.31;;;19.55;74.11
80542;BME280;69870;51.460;8.842;2023-07-31T09:27:49;97800.75;;;19.85;73.76
80542;BME280;69870;51.460;8.842;2023-07-31T09:30:16;97788.53;;;20.02;73.28
80542;BME280;69870;51.460;8.842;2023-07-31T09:32:44;97784.06;;;20.08;73.20
80542;BME280;69870;51.460;8.842;2023-07-31T09:35:19;97790.09;;;20.03;72.84
80542;BME280;69870;51.460;8.842;2023-07-31T09:37:49;97792.41;;;19.89;73.12
80542;BME280;69870;51.460;8.842;2023-07-31T09:40:27;97798.38;;;19.67;73.14
80542;BME280;69870;51.460;8.842;2023-07-31T09:42:56;97787.22;;;19.55;73.50
80542;BME280;69870;51.460;8.842;2023-07-31T09:45:23;97788.50;;;19.50;74.05
80542;BME280;69870;51.460;8.842;2023-07-31T09:47:50;97785.66;;;19.54;74.30
80542;BME280;69870;51.460;8.842;2023-07-31T09:50:17;97775.97;;;19.65;73.53
80542;BME280;69870;51.460;8.842;2023-07-31T09:52:44;97773.84;;;19.73;73.15
80542;BME280;69870;51.460;8.842;2023-07-31T09:55:10;97777.63;;;19.79;73.41
80542;BME280;69870;51.460;8.842;2023-07-31T09:57:40;97772.81;;;19.83;73.37
80542;BME280;69870;51.460;8.842;2023-07-31T10:00:08;97772.13;;;19.79;73.60
80542;BME280;69870;51.460;8.842;2023-07-31T10:02:37;97764.41;;;19.70;72.91
80542;BME280;69870;51.460;8.842;2023-07-31T10:05:05;97766.09;;;19.64;73.68
80542;BME280;69870;51.460;8.842;2023-07-31T10:07:36;97767.31;;;19.63;73.55
80542;BME280;69870;51.460;8.842;2023-07-31T10:10:05;97769.25;;;19.66;73.37
80542;BME280;69870;51.460;8.842;2023-07-31T10:12:33;97767.53;;;19.72;73.55
80542;BME280;69870;51.460;8.842;2023-07-31T10:15:02;97768.38;;;19.69;73.74
80542;BME280;69870;51.460;8.842;2023-07-31T10:17:30;97761.31;;;19.68;73.70
80542;BME280;69870;51.460;8.842;2023-07-31T10:19:58;97755.78;;;19.68;73.86
80542;BME280;69870;51.460;8.842;2023-07-31T10:22:25;97756.00;;;19.78;73.10
80542;BME280;69870;51.460;8.842;2023-07-31T10:24:52;97746.78;;;19.84;73.56
80542;BME280;69870;51.460;8.842;2023-07-31T10:27:20;97755.16;;;19.97;72.47
80542;BME280;69870;51.460;8.842;2023-07-31T10:29:47;97752.47;;;20.09;72.52
80542;BME280;69870;51.460;8.842;2023-07-31T10:32:16;97743.16;;;20.19;71.83
80542;BME280;69870;51.460;8.842;2023-07-31T10:34:43;97744.38;;;20.18;72.08
80542;BME280;69870;51.460;8.842;2023-07-31T10:37:20;97753.16;;;20.13;71.62
80542;BME280;69870;51.460;8.842;2023-07-31T10:39:56;97738.41;;;20.04;71.94
80542;BME280;69870;51.460;8.842;2023-07-31T10:42:28;97752.47;;;20.09;71.65
80542;BME280;69870;51.460;8.842;2023-07-31T10:44:57;97738.69;;;20.25;70.90
80542;BME280;69870;51.460;8.842;2023-07-31T10:47:24;97740.94;;;20.30;70.60
80542;BME280;69870;51.460;8.842;2023-07-31T10:49:51;97738.19;;;20.30;70.79
80542;BME280;69870;51.460;8.842;2023-07-31T10:52:19;97730.84;;;20.24;69.94
80542;BME280;69870;51.460;8.842;2023-07-31T10:54:48;97729.28;;;20.23;70.16
80542;BME280;69870;51.460;8.842;2023-07-31T10:57:21;97735.59;;;20.23;70.00
80542;BME280;69870;51.460;8.842;2023-07-31T10:59:48;97730.66;;;20.15;70.00
80542;BME280;69870;51.460;8.842;2023-07-31T11:02:26;97732.91;;;20.04;69.43
80542;BME280;69870;51.460;8.842;2023-07-31T11:05:08;97739.38;;;19.97;69.29
80542;BME280;69870;51.460;8.842;2023-07-31T11:07:47;97733.06;;;19.97;69.32
80542;BME280;69870;51.460;8.842;2023-07-31T11:10:16;97736.31;;;19.92;69.52
80542;BME280;69870;51.460;8.842;2023-07-31T11:12:44;97743.47;;;19.89;69.80
80542;BME280;69870;51.460;8.842;2023-07-31T11:15:11;97740.47;;;19.84;69.84
80542;BME280;69870;51.460;8.842;2023-07-31T11:17:39;97740.63;;;19.77;70.02
80542;BME280;69870;51.460;8.842;2023-07-31T11:20:07;97738.81;;;19.70;70.45
80542;BME280;69870;51.460;8.842;2023-07-31T11:22:34;97741.47;;;19.73;70.49
80542;BME280;69870;51.460;8.842;2023-07-31T11:25:01;97740.97;;;19.79;70.53
80542;BME280;69870;51.460;8.842;2023-07-31T11:27:28;97736.56;;;19.81;70.60
80542;BME280;69870;51.460;8.842;2023-07-31T11:30:00;97737.25;;;19.85;71.01
80542;BME280;69870;51.460;8.842;2023-07-31T11:32:26;97731.31;;;19.87;70.59
80542;BME280;69870;51.460;8.842;2023-07-31T11:34:54;97733.31;;;19.86;70.90
80542;BME280;69870;51.460;8.842;2023-07-31T11:37:21;97740.72;;;19.89;70.86
80542;BME280;69870;51.460;8.842;2023-07-31T11:39:58;97731.25;;;19.90;70.90
80542;BME280;69870;51.460;8.842;2023-07-31T11:42:25;97729.94;;;19.95;70.99
80542;BME280;69870;51.460;8.842;2023-07-31T11:44:51;97726.25;;;20.01;70.89
80542;BME280;69870;51.460;8.842;2023-07-31T11:47:18;97722.09;;;20.09;71.22
80542;BME280;69870;51.460;8.842;2023-07-31T11:49:46;97719.25;;;20.13;71.26
80542;BME280;69870;51.460;8.842;2023-07-31T11:52:14;97725.53;;;20.13;71.06
80542;BME280;69870;51.460;8.842;2023-07-31T11:54:41;97724.25;;;20.18;71.35
80542;BME280;69870;51.460;8.842;2023-07-31T11:57:08;97722.22;;;20.22;71.61
80542;BME280;69870;51.460;8.842;2023-07-31T11:59:35;97722.91;;;20.26;71.45
80542;BME280;69870;51.460;8.842;2023-07-31T12:02:02;97718.06;;;20.30;70.82
80542;BME280;69870;51.460;8.842;2023-07-31T12:04:29;97714.13;;;20.31;71.32
80542;BME280;69870;51.460;8.842;2023-07-31T12:06:56;97708.59;;;20.31;71.04
80542;BME280;69870;51.460;8.842;2023-07-31T12:09:23;97706.25;;;20.29;71.28
80542;BME280;69870;51.460;8.842;2023-07-31T12:11:51;97718.06;;;20.30;71.42
80542;BME280;69870;51.460;8.842;2023-07-31T12:14:20;97716.94;;;20.27;71.40
80542;BME280;69870;51.460;8.842;2023-07-31T12:16:46;97710.13;;;20.32;71.54
80542;BME280;69870;51.460;8.842;2023-07-31T12:19:13;97711.47;;;20.40;70.97
80542;BME280;69870;51.460;8.842;2023-07-31T12:21:39;97717.72;;;20.44;70.83
80542;BME280;69870;51.460;8.842;2023-07-31T12:24:06;97710.56;;;20.47;70.90
80542;BME280;69870;51.460;8.842;2023-07-31T12:26:35;97705.09;;;20.43;70.89
80542;BME280;69870;51.460;8.842;2023-07-31T12:29:01;97712.25;;;20.40;71.06
80542;BME280;69870;51.460;8.842;2023-07-31T12:31:28;97700.88;;;20.38;70.38
80542;BME280;69870;51.460;8.842;2023-07-31T12:33:55;97703.75;;;20.35;70.14
80542;BME280;69870;51.460;8.842;2023-07-31T12:36:23;97692.34;;;20.33;70.52
80542;BME280;69870;51.460;8.842;2023-07-31T12:38:51;97693.72;;;20.41;70.26
80542;BME280;69870;51.460;8.842;2023-07-31T12:41:18;97698.63;;;20.50;69.95
80542;BME280;69870;51.460;8.842;2023-07-31T12:43:46;97691.34;;;20.56;70.51
80542;BME280;69870;51.460;8.842;2023-07-31T12:46:13;97689.94;;;20.64;70.48
80542;BME280;69870;51.460;8.842;2023-07-31T12:48:41;97685.00;;;20.71;70.34
80542;BME280;69870;51.460;8.842;2023-07-31T12:51:07;97682.47;;;20.77;70.28
80542;BME280;69870;51.460;8.842;2023-07-31T12:53:34;97684.16;;;20.87;70.16
80542;BME280;69870;51.460;8.842;2023-07-31T12:56:01;97680.34;;;20.97;69.37
80542;BME280;69870;51.460;8.842;2023-07-31T12:58:28;97672.72;;;21.01;69.69
80542;BME280;69870;51.460;8.842;2023-07-31T13:00:56;97681.88;;;20.98;69.47
80542;BME280;69870;51.460;8.842;2023-07-31T13:03:22;97679.38;;;21.03;68.82
80542;BME280;69870;51.460;8.842;2023-07-31T13:05:50;97673.22;;;21.12;68.58